Airfield :
LOGIN :

Register | Disclaimer

   EN    FR    IT 

 










Legend :    VFR   Marginal VFR   IFR   Intensive IFR   Very Intensive IFR
Visi :
Ceiling :
>= 8 km
>= 3000ft
5 to 8 km
1000 to 3000 ft
1500m to 5 km
500 to 1000 ft
800 to 1500m
200 to 500 ft
< 800m
< 200 ft
Symbols :   Thunderstorms  Fog  Heavy snow  Heavy precipitations  Wind > 20 kt
SIGMETs :     Misc.  Thunderstorms  Icing  Turbulence  Mountain Waves  Volcanic Ashes






- Airport Elevation : 154 ft
- IATA code : SZZ


EPSC - Szczecin Goleniow

CURRENT METAR :
  • 250400Z 23006KT 190V270 5000 BR OVC003 02/01 Q1018

EXPIRED METARs :
  • 250330Z 23005KT 190V270 5000 BR OVC003 02/01 Q1018
  • 250300Z 22005KT 180V270 6000 -DZ OVC003 01/01 Q1018
  • 250230Z 23005KT 200V260 4100 -DZ BR BKN003 OVC004 01/01 Q1018
  • 250200Z 23006KT 200V260 5000 BR BKN003 OVC005 01/01 Q1018
  • 250130Z 23005KT 190V260 5000 BR BKN004 OVC005 01/01 Q1018

TAF TAF EPSC
Valid from the 25 at 00:00 until the 26 at 00:00 UTC


242330Z 2500/2524 24006KT 6000 BKN007
TEMPO 2500/2524 4000 -DZ BR OVC003
BECMG 2512/2515 2000 DZ BR
PROB40
TEMPO 2518/2524 0600 -DZ FG OVC001



MET'MAP, your aeronautical weather chart ! - Copyright ORBIFLY December 2007 - Disclaimer

ORBIFLY MET'MAP TEAM :

Programming & Development : Alexandra Zaïnal
Concept & original design : Baudouin d'Aumeries
Assistance for programming : Marc-Olivier Méhu
Technical & hardware support : Manuel Goepfert

Contact : metmap@orbifly.com




SOURCES & CREDITS :

   NOAA